Terminal Aerodrome Forecast
Issued by NWS

Home | Current Version | Previous Version | Text Only | Print | Product List | Glossary Off
Versions: 1 2 3 4 5 6 7 8 9 10 11 12 13 14 15 16 17 18 19 20 21 22

000
FTUS43 KBIS 171100
TAFJMS
TAF
KJMS 171136Z 1712/1812 VRB05KT 5SM BR BKN006
     FM171600 15006KT P6SM BKN050
     FM180200 20007KT P6SM VCTS BKN040CB
      TEMPO 1803/1807 3SM TSRA BKN030CB=

USA.gov is the U.S. government's official web portal to all federal, state and local government web resources and services.